Time;durP1;ratioP1;P1;durP2;ratioP2;P2;SDS_P1;SDS_P2;PMS_P1;PMS_P2;Temp;Humidity;BMP_temperature;BMP_pressure;BME280_temperature;BME280_humidity;BME280_pressure;Samples;Min_cycle;Max_cycle;Signal;HPM_P1;HPM_P2
2023/03/07 00:00:28;;;;;;;9.90;8.97;;;;;19.90;98786.00;;;;2063495;28;20213;-65
2023/03/07 00:01:30;;;;;;;10.97;9.87;;;;;20.00;98782.00;;;;2063374;28;20211;-65
2023/03/07 00:02:30;;;;;;;11.07;9.98;;;;;20.00;98782.00;;;;2063590;28;20623;-65
2023/03/07 00:03:31;;;;;;;10.20;9.20;;;;;19.90;98775.00;;;;2063162;28;20215;-65
2023/03/07 00:04:31;;;;;;;9.63;8.30;;;;;19.90;98775.00;;;;2063565;28;20265;-65
2023/03/07 00:05:32;;;;;;;10.37;9.30;;;;;19.90;98791.00;;;;2063237;28;20253;-65
2023/03/07 00:06:32;;;;;;;10.23;9.00;;;;;19.90;98775.00;;;;2063414;28;20226;-65
2023/03/07 00:07:32;;;;;;;10.30;9.30;;;;;19.90;98772.00;;;;2062804;28;20301;-65
2023/03/07 00:08:33;;;;;;;9.73;8.73;;;;;19.90;98772.00;;;;2063135;28;20238;-65
2023/03/07 00:09:33;;;;;;;8.87;8.03;;;;;20.00;98776.00;;;;2063493;28;20210;-65
2023/03/07 00:10:33;;;;;;;9.23;8.33;;;;;20.00;98773.00;;;;2063457;28;20267;-66
2023/03/07 00:11:34;;;;;;;10.13;9.13;;;;;20.00;98778.00;;;;2063504;28;20281;-65
2023/03/07 00:12:34;;;;;;;9.40;8.40;;;;;19.90;98779.00;;;;2063182;28;20215;-66
2023/03/07 00:13:36;;;;;;;8.37;7.57;;;;;19.90;98774.00;;;;2063359;28;20265;-65
2023/03/07 00:14:36;;;;;;;8.48;7.68;;;;;19.90;98778.00;;;;2063459;28;20302;-65
2023/03/07 00:15:37;;;;;;;9.10;8.20;;;;;19.90;98784.00;;;;2063242;28;20219;-65
2023/03/07 00:16:38;;;;;;;9.55;8.60;;;;;19.90;98776.00;;;;2063485;28;20219;-65
2023/03/07 00:17:38;;;;;;;8.87;7.97;;;;;19.90;98782.00;;;;2063520;28;20257;-65
2023/03/07 00:18:40;;;;;;;8.90;8.10;;;;;19.90;98770.00;;;;2062996;28;20219;-65
2023/03/07 00:19:43;;;;;;;7.57;6.85;;;;;19.90;98768.00;;;;2054868;28;20207;-65
2023/03/07 00:20:44;;;;;;;7.28;6.57;;;;;19.90;98769.00;;;;2055316;28;20215;-66
2023/03/07 00:21:44;;;;;;;8.23;7.43;;;;;19.90;98772.00;;;;2063336;28;20218;-65
2023/03/07 00:22:45;;;;;;;7.17;6.47;;;;;19.90;98765.00;;;;2063445;28;20446;-65
2023/03/07 00:23:46;;;;;;;7.40;6.70;;;;;19.90;98769.00;;;;2063223;28;20269;-65
2023/03/07 00:24:47;;;;;;;7.07;6.37;;;;;19.80;98762.00;;;;2063357;28;20453;-65
2023/03/07 00:26:17;;;;;;;7.95;7.15;;;;;19.80;98774.00;;;;2065927;28;20237;-65
2023/03/07 00:27:18;;;;;;;7.20;6.50;;;;;19.80;98772.00;;;;2058183;28;20369;-66
2023/03/07 00:28:18;;;;;;;7.30;6.23;;;;;19.80;98771.00;;;;2071300;28;20241;-65
2023/03/07 00:29:18;;;;;;;7.60;6.50;;;;;19.80;98773.00;;;;2071489;28;20248;-66
2023/03/07 00:30:19;;;;;;;8.27;7.50;;;;;19.80;98764.00;;;;2071203;28;20216;-65
2023/03/07 00:31:19;;;;;;;7.40;6.60;;;;;19.80;98757.00;;;;2071171;28;20218;-65
2023/03/07 00:32:20;;;;;;;7.47;6.77;;;;;19.80;98766.00;;;;2071508;28;20206;-65
2023/03/07 00:33:20;;;;;;;6.80;6.10;;;;;19.80;98767.00;;;;2071460;28;20214;-65
2023/03/07 00:34:20;;;;;;;7.20;6.60;;;;;19.80;98766.00;;;;2062577;28;20345;-65
2023/03/07 00:35:21;;;;;;;6.87;6.17;;;;;19.80;98766.00;;;;2062632;28;20211;-65
2023/03/07 00:36:21;;;;;;;7.10;6.17;;;;;19.80;98766.00;;;;2071190;28;20234;-65
2023/03/07 00:37:21;;;;;;;7.03;6.40;;;;;19.80;98773.00;;;;2071402;28;20620;-65
2023/03/07 00:38:22;;;;;;;7.73;6.40;;;;;19.80;98773.00;;;;2071213;28;20202;-65
2023/03/07 00:39:22;;;;;;;6.83;6.13;;;;;19.80;98776.00;;;;2071438;28;20218;-65
2023/03/07 00:40:23;;;;;;;6.07;5.47;;;;;19.70;98773.00;;;;2071416;28;20227;-65
2023/03/07 00:41:25;;;;;;;6.53;5.93;;;;;19.80;98761.00;;;;2070964;28;20206;-65
2023/03/07 00:42:25;;;;;;;6.35;5.75;;;;;19.80;98762.00;;;;2071430;28;20218;-66
2023/03/07 00:43:26;;;;;;;6.57;5.97;;;;;19.70;98772.00;;;;2071326;28;20217;-65
2023/03/07 00:44:28;;;;;;;6.00;5.43;;;;;19.70;98765.00;;;;2062550;28;20222;-65
2023/03/07 00:45:29;;;;;;;5.72;5.22;;;;;19.70;98769.00;;;;2062987;28;20211;-66
2023/03/07 00:46:29;;;;;;;6.23;5.63;;;;;19.80;98710.00;;;;2071155;28;20246;-66
2023/03/07 00:47:29;;;;;;;5.93;5.43;;;;;19.80;98762.00;;;;2071402;28;20210;-66
2023/03/07 00:48:32;;;;;;;5.83;5.33;;;;;19.70;98762.00;;;;2071028;28;20268;-65
2023/03/07 00:49:32;;;;;;;5.35;4.82;;;;;19.70;98759.00;;;;2071367;28;20288;-65
2023/03/07 00:50:32;;;;;;;5.80;5.30;;;;;19.70;98759.00;;;;2062525;28;20277;-66
2023/03/07 00:51:33;;;;;;;6.50;5.80;;;;;19.80;98766.00;;;;2062499;28;20206;-65
2023/03/07 00:52:33;;;;;;;5.93;5.33;;;;;19.70;98759.00;;;;2071146;28;20210;-65
2023/03/07 00:53:34;;;;;;;5.40;4.90;;;;;19.70;98767.00;;;;2071336;28;20202;-66
2023/03/07 00:54:34;;;;;;;5.60;5.10;;;;;19.70;98756.00;;;;2071208;28;20257;-66
2023/03/07 00:55:34;;;;;;;5.00;4.60;;;;;19.70;98758.00;;;;2071468;28;20674;-65
2023/03/07 00:56:34;;;;;;;5.47;4.90;;;;;19.70;98746.00;;;;2071246;28;20696;-65
2023/03/07 00:57:35;;;;;;;5.57;5.07;;;;;19.70;98748.00;;;;2071322;28;20299;-65
2023/03/07 00:58:35;;;;;;;5.10;4.60;;;;;19.70;98755.00;;;;2071272;28;20214;-65
2023/03/07 00:59:35;;;;;;;4.90;4.50;;;;;19.70;98753.00;;;;2071471;28;20218;-65
2023/03/07 01:00:36;;;;;;;5.57;5.07;;;;;19.60;98720.00;;;;2071570;28;20213;-66
2023/03/07 01:01:36;;;;;;;4.93;4.50;;;;;19.60;98755.00;;;;2071289;28;20780;-66
2023/03/07 01:02:36;;;;;;;5.17;4.77;;;;;19.60;98761.00;;;;2071500;28;20206;-66
2023/03/07 01:03:37;;;;;;;5.33;4.83;;;;;19.60;98754.00;;;;2071300;28;20714;-66
2023/03/07 01:04:37;;;;;;;5.13;4.63;;;;;19.60;98748.00;;;;2071440;28;20306;-65
2023/03/07 01:05:38;;;;;;;4.90;4.40;;;;;19.60;98752.00;;;;2071369;28;20218;-66
2023/03/07 01:06:39;;;;;;;4.80;4.40;;;;;19.60;98752.00;;;;2071366;28;20533;-65
2023/03/07 01:07:39;;;;;;;5.37;4.87;;;;;19.60;98745.00;;;;2071309;28;20282;-66
2023/03/07 01:08:40;;;;;;;4.47;4.07;;;;;19.60;98757.00;;;;2070966;28;20623;-66
2023/03/07 01:09:40;;;;;;;4.77;4.27;;;;;19.60;98750.00;;;;2071348;28;20686;-66
2023/03/07 01:10:40;;;;;;;4.80;4.40;;;;;19.60;98753.00;;;;2071417;28;20226;-66
2023/03/07 01:11:40;;;;;;;5.40;4.23;;;;;19.60;98746.00;;;;2071361;28;20205;-65
2023/03/07 01:12:42;;;;;;;4.80;4.40;;;;;19.60;98750.00;;;;2071370;28;20210;-66
2023/03/07 01:13:43;;;;;;;5.35;4.20;;;;;19.60;98750.00;;;;2071237;28;20217;-65
2023/03/07 01:14:43;;;;;;;4.73;4.33;;;;;19.60;98748.00;;;;2071134;28;20237;-65
2023/03/07 01:15:43;;;;;;;4.70;4.27;;;;;19.60;98737.00;;;;2071336;28;20669;-65
2023/03/07 01:16:44;;;;;;;5.00;4.60;;;;;19.60;98739.00;;;;2062680;28;20219;-66
2023/03/07 01:17:44;;;;;;;4.47;4.07;;;;;19.60;98749.00;;;;2063165;28;20268;-65
2023/03/07 01:18:49;;;;;;;4.47;4.07;;;;;19.60;98737.00;;;;2071127;28;20300;-66
2023/03/07 01:19:50;;;;;;;5.07;4.30;;;;;19.60;98741.00;;;;2062755;28;20286;-65
2023/03/07 01:20:50;;;;;;;4.90;4.20;;;;;19.60;98744.00;;;;2061816;28;20301;-66
2023/03/07 01:21:50;;;;;;;4.30;3.90;;;;;19.50;98745.00;;;;2071319;28;20218;-65
2023/03/07 01:22:50;;;;;;;4.30;3.90;;;;;19.60;98738.00;;;;2071409;28;20222;-66
2023/03/07 01:23:51;;;;;;;4.43;4.03;;;;;19.60;98739.00;;;;2071150;28;20248;-66
2023/03/07 01:24:51;;;;;;;4.30;3.90;;;;;19.50;98741.00;;;;2071367;28;20226;-66
2023/03/07 01:25:52;;;;;;;3.83;3.33;;;;;19.50;98741.00;;;;2071020;28;20256;-66
2023/03/07 01:26:52;;;;;;;3.70;3.40;;;;;19.50;98735.00;;;;2070992;28;20222;-66
2023/03/07 01:27:54;;;;;;;4.30;3.90;;;;;19.50;98737.00;;;;2071723;28;20222;-65
2023/03/07 01:28:56;;;;;;;4.97;3.75;;;;;19.50;98743.00;;;;2072798;28;20226;-65
2023/03/07 01:29:56;;;;;;;3.67;3.38;;;;;19.50;98739.00;;;;2072559;28;20634;-65
2023/03/07 01:30:57;;;;;;;4.13;3.73;;;;;19.50;98731.00;;;;2072824;28;20218;-65
2023/03/07 01:31:57;;;;;;;3.60;3.30;;;;;19.50;98736.00;;;;2072567;28;20222;-65
2023/03/07 01:32:58;;;;;;;4.10;3.70;;;;;19.50;98731.00;;;;2072756;28;20253;-66
2023/03/07 01:34:00;;;;;;;3.83;3.53;;;;;19.50;98741.00;;;;2072760;28;20219;-66
2023/03/07 01:35:01;;;;;;;3.90;3.50;;;;;19.50;98729.00;;;;2072406;28;20546;-66
2023/03/07 01:36:01;;;;;;;3.70;3.40;;;;;19.50;98735.00;;;;2072525;28;20226;-66
2023/03/07 01:37:02;;;;;;;3.80;3.50;;;;;19.50;98732.00;;;;2072555;28;20218;-65
2023/03/07 01:38:02;;;;;;;3.63;3.33;;;;;19.50;98733.00;;;;2072439;28;20224;-66
2023/03/07 01:39:05;;;;;;;3.20;2.90;;;;;19.50;98730.00;;;;2072706;28;20217;-66
2023/03/07 01:40:06;;;;;;;3.65;3.35;;;;;19.50;98733.00;;;;2072592;28;20206;-66
2023/03/07 01:41:07;;;;;;;3.93;3.53;;;;;19.50;98720.00;;;;2072678;28;20280;-66
2023/03/07 01:42:08;;;;;;;3.45;3.15;;;;;19.50;98731.00;;;;2064005;28;20454;-66
2023/03/07 01:43:37;;;;;;;4.10;3.70;;;;;19.40;98724.00;;;;2063676;28;20221;-65
2023/03/07 01:44:57;;;;;;;3.67;3.38;;;;;19.50;98730.00;;;;2051260;28;20203;-66
2023/03/07 01:46:18;;;;;;;3.65;3.35;;;;;19.40;98731.00;;;;2072257;28;20232;-66
2023/03/07 01:47:18;;;;;;;3.67;3.13;;;;;19.50;98727.00;;;;2071956;28;20225;-66
2023/03/07 01:48:18;;;;;;;3.43;3.13;;;;;19.50;98714.00;;;;2072166;28;20232;-66
2023/03/07 01:49:37;;;;;;;3.40;3.10;;;;;19.40;98727.00;;;;2063899;28;20290;-66
2023/03/07 01:50:37;;;;;;;3.20;2.97;;;;;19.40;98703.00;;;;2063812;28;20441;-65
2023/03/07 01:51:39;;;;;;;3.67;3.13;;;;;19.50;98726.00;;;;2063939;28;20215;-65
2023/03/07 01:52:53;;;;;;;3.50;3.20;;;;;19.40;98714.00;;;;2056058;28;20226;-65
2023/03/07 01:53:53;;;;;;;3.45;3.15;;;;;19.40;98724.00;;;;2063713;28;20218;-65
2023/03/07 01:54:55;;;;;;;3.30;3.00;;;;;19.40;98719.00;;;;2055871;28;20311;-66
2023/03/07 01:55:56;;;;;;;2.97;2.78;;;;;19.50;98726.00;;;;2063955;28;20724;-66
2023/03/07 01:56:57;;;;;;;3.10;2.90;;;;;19.50;98724.00;;;;2072330;28;20214;-65
2023/03/07 01:57:58;;;;;;;3.80;3.13;;;;;19.40;98714.00;;;;2055636;28;20571;-66
2023/03/07 01:58:58;;;;;;;3.53;3.23;;;;;19.40;98726.00;;;;2055960;28;20223;-65
2023/03/07 02:00:00;;;;;;;3.50;3.20;;;;;19.40;98723.00;;;;2055722;28;20473;-66
2023/03/07 02:01:00;;;;;;;3.38;3.08;;;;;19.40;98690.00;;;;2055922;28;20219;-66
2023/03/07 02:02:04;;;;;;;3.40;3.10;;;;;19.40;98697.00;;;;2055901;28;20219;-66
2023/03/07 02:03:10;;;;;;;3.42;3.15;;;;;19.40;98726.00;;;;2063900;28;20273;-66
2023/03/07 02:04:14;;;;;;;3.28;3.00;;;;;19.40;98712.00;;;;2064502;28;20260;-66
2023/03/07 02:05:15;;;;;;;3.60;3.30;;;;;19.40;98710.00;;;;2063824;28;20211;-66
2023/03/07 02:06:15;;;;;;;3.60;3.30;;;;;19.30;98706.00;;;;2055714;28;20238;-65
2023/03/07 02:07:16;;;;;;;3.57;3.27;;;;;19.40;98706.00;;;;2055768;28;20374;-66
2023/03/07 02:08:17;;;;;;;3.73;3.43;;;;;19.40;98704.00;;;;2063673;28;20227;-66
2023/03/07 02:09:17;;;;;;;3.40;3.10;;;;;19.40;98716.00;;;;2063787;28;21038;-65
2023/03/07 02:10:19;;;;;;;3.90;3.60;;;;;19.30;98696.00;;;;2063750;28;20253;-66
2023/03/07 02:11:19;;;;;;;3.53;3.22;;;;;19.40;98705.00;;;;2071705;28;20565;-66
2023/03/07 02:12:19;;;;;;;3.50;3.20;;;;;19.40;98702.00;;;;2072364;28;20216;-66
2023/03/07 02:13:20;;;;;;;4.00;3.60;;;;;19.40;98700.00;;;;2072397;28;20215;-66
2023/03/07 02:14:20;;;;;;;3.90;3.60;;;;;19.40;98702.00;;;;2072345;28;20244;-66
2023/03/07 02:15:20;;;;;;;3.80;3.50;;;;;19.40;98692.00;;;;2072559;28;20583;-65
2023/03/07 02:16:21;;;;;;;4.00;3.70;;;;;19.30;98696.00;;;;2063661;28;20710;-66
2023/03/07 02:17:21;;;;;;;3.80;3.40;;;;;19.30;98699.00;;;;2055705;28;20226;-66
2023/03/07 02:18:23;;;;;;;4.07;3.70;;;;;19.30;98699.00;;;;2063178;28;20222;-66
2023/03/07 02:19:35;;;;;;;3.75;3.45;;;;;19.40;98688.00;;;;2071987;28;20222;-66
2023/03/07 02:20:57;;;;;;;3.70;3.40;;;;;19.30;98689.00;;;;2063392;28;20211;-66
2023/03/07 02:22:04;;;;;;;4.43;3.83;;;;;19.30;98690.00;;;;2058153;28;20218;-66
2023/03/07 02:23:06;;;;;;;5.03;3.67;;;;;19.30;98682.00;;;;2067085;28;20300;-66
2023/03/07 02:24:18;;;;;;;4.15;3.83;;;;;19.30;98691.00;;;;2063761;28;20226;-66
2023/03/07 02:25:19;;;;;;;4.28;3.88;;;;;19.30;98688.00;;;;2065669;28;20277;-66
2023/03/07 02:26:33;;;;;;;3.90;3.60;;;;;19.40;98678.00;;;;2056734;28;20227;-66
2023/03/07 02:27:35;;;;;;;3.70;3.40;;;;;19.30;98675.00;;;;2055368;28;20660;-66
2023/03/07 02:28:35;;;;;;;4.13;3.83;;;;;19.30;98683.00;;;;2055206;28;20227;-66
2023/03/07 02:29:35;;;;;;;3.40;3.13;;;;;19.30;98676.00;;;;2055725;28;20723;-66
2023/03/07 02:30:36;;;;;;;3.90;3.60;;;;;19.30;98683.00;;;;2055435;28;20203;-66
2023/03/07 02:31:37;;;;;;;3.97;3.60;;;;;19.30;98683.00;;;;2064212;28;20721;-66
2023/03/07 02:32:37;;;;;;;3.60;3.30;;;;;19.30;98670.00;;;;2064105;28;20239;-66
2023/03/07 02:33:37;;;;;;;5.57;3.83;;;;;19.30;98671.00;;;;2063979;28;20211;-65
2023/03/07 02:34:38;;;;;;;3.87;3.57;;;;;19.30;98681.00;;;;2064068;28;20607;-66
2023/03/07 02:35:38;;;;;;;5.40;3.43;;;;;19.30;98691.00;;;;2063878;28;20825;-66
2023/03/07 02:36:38;;;;;;;3.40;3.10;;;;;19.30;98674.00;;;;2063930;28;20721;-65
2023/03/07 02:37:39;;;;;;;2.93;2.70;;;;;19.30;98675.00;;;;2064306;28;20683;-66
2023/03/07 02:38:41;;;;;;;3.10;2.90;;;;;19.30;98658.00;;;;2055099;28;20255;-66
2023/03/07 02:39:42;;;;;;;3.58;2.42;;;;;19.30;98670.00;;;;2047711;28;20230;-66
2023/03/07 02:40:42;;;;;;;2.50;2.30;;;;;19.30;98673.00;;;;2055438;28;20310;-66
2023/03/07 02:41:43;;;;;;;2.60;2.40;;;;;19.30;98679.00;;;;2063695;28;20254;-66
2023/03/07 02:42:43;;;;;;;2.63;2.43;;;;;19.30;98660.00;;;;2064205;28;20243;-65
2023/03/07 02:43:43;;;;;;;3.00;2.70;;;;;19.30;98667.00;;;;2064276;28;20806;-66
2023/03/07 02:44:45;;;;;;;2.70;2.50;;;;;19.20;98671.00;;;;2063974;28;20226;-66
2023/03/07 02:45:45;;;;;;;3.30;2.13;;;;;19.20;98660.00;;;;2064112;28;20215;-66
2023/03/07 02:46:45;;;;;;;2.30;2.10;;;;;19.20;98663.00;;;;2064092;28;20692;-66
2023/03/07 02:47:46;;;;;;;2.30;2.10;;;;;19.20;98673.00;;;;2064032;28;20222;-66
2023/03/07 02:48:46;;;;;;;2.50;2.20;;;;;19.20;98672.00;;;;2063494;28;20301;-66
2023/03/07 02:49:46;;;;;;;2.37;2.17;;;;;19.20;98669.00;;;;2064179;28;20214;-66
2023/03/07 02:50:47;;;;;;;2.17;2.00;;;;;19.20;98668.00;;;;2063977;28;20211;-66
2023/03/07 02:51:47;;;;;;;2.10;2.00;;;;;19.20;98646.00;;;;2064127;28;21647;-66
2023/03/07 02:52:48;;;;;;;2.33;2.13;;;;;19.20;98659.00;;;;2064119;28;20236;-66
2023/03/07 02:53:49;;;;;;;2.30;2.10;;;;;19.20;98664.00;;;;2064168;28;20230;-66
2023/03/07 02:54:49;;;;;;;3.30;2.37;;;;;19.20;98663.00;;;;2063974;28;20446;-65
2023/03/07 02:55:49;;;;;;;1.97;1.77;;;;;19.20;98666.00;;;;2064053;28;20210;-66
2023/03/07 02:56:50;;;;;;;2.37;2.17;;;;;19.20;98661.00;;;;2063804;28;20284;-66
2023/03/07 02:57:50;;;;;;;2.20;2.00;;;;;19.20;98658.00;;;;2064045;28;20218;-65
2023/03/07 02:58:50;;;;;;;1.87;1.77;;;;;19.20;98661.00;;;;2063945;28;20222;-66
2023/03/07 02:59:51;;;;;;;2.00;1.80;;;;;19.20;98666.00;;;;2064028;28;20215;-65
2023/03/07 03:00:51;;;;;;;1.80;1.70;;;;;19.20;98657.00;;;;2064188;28;20221;-65
2023/03/07 03:01:51;;;;;;;1.47;1.37;;;;;19.20;98658.00;;;;2063704;28;20227;-66
2023/03/07 03:02:51;;;;;;;2.03;1.83;;;;;19.20;98660.00;;;;2055300;28;20250;-66
2023/03/07 03:03:52;;;;;;;1.90;1.80;;;;;19.20;98661.00;;;;2055335;28;20281;-66
2023/03/07 03:04:52;;;;;;;1.93;1.80;;;;;19.20;98657.00;;;;2064053;28;20255;-65
2023/03/07 03:05:53;;;;;;;3.57;1.97;;;;;19.20;98660.00;;;;2064107;28;20643;-66
2023/03/07 03:06:53;;;;;;;3.10;2.00;;;;;19.20;98660.00;;;;2064059;28;20625;-65
2023/03/07 03:07:53;;;;;;;1.80;1.70;;;;;19.10;98661.00;;;;2063703;28;20434;-66
2023/03/07 03:08:54;;;;;;;2.77;1.60;;;;;19.20;98665.00;;;;2063848;28;20218;-66
2023/03/07 03:09:54;;;;;;;2.23;1.93;;;;;19.10;98663.00;;;;2064072;28;20228;-66
2023/03/07 03:10:54;;;;;;;1.93;1.77;;;;;19.10;98664.00;;;;2063970;28;20222;-65
2023/03/07 03:11:55;;;;;;;2.27;1.90;;;;;19.20;98662.00;;;;2064000;28;20246;-66
2023/03/07 03:12:55;;;;;;;2.03;1.80;;;;;19.20;98665.00;;;;2063924;28;20285;-66
2023/03/07 03:13:55;;;;;;;2.20;1.90;;;;;19.20;98652.00;;;;2063751;28;20218;-66
2023/03/07 03:14:56;;;;;;;1.97;1.60;;;;;19.20;98663.00;;;;2063722;28;20635;-66
2023/03/07 03:15:56;;;;;;;1.97;1.63;;;;;19.20;98640.00;;;;2063935;28;20666;-66
2023/03/07 03:16:57;;;;;;;2.60;1.90;;;;;19.10;98656.00;;;;2063950;28;20249;-66
2023/03/07 03:17:57;;;;;;;1.40;1.30;;;;;19.20;98659.00;;;;2063734;28;20219;-66
2023/03/07 03:18:57;;;;;;;1.60;1.50;;;;;19.10;98662.00;;;;2063653;28;20705;-66
2023/03/07 03:19:57;;;;;;;1.73;1.30;;;;;19.20;98674.00;;;;2063933;28;20718;-66
2023/03/07 03:20:58;;;;;;;1.63;1.37;;;;;19.10;98656.00;;;;2063882;28;20234;-66
2023/03/07 03:21:58;;;;;;;1.80;1.50;;;;;19.10;98670.00;;;;2063252;28;20219;-65
2023/03/07 03:22:58;;;;;;;1.53;1.27;;;;;19.10;98654.00;;;;2063867;28;20301;-66
2023/03/07 03:24:06;;;;;;;1.40;1.30;;;;;19.10;98640.00;;;;2055299;28;20695;-66
2023/03/07 03:25:08;;;;;;;1.70;1.50;;;;;19.10;98646.00;;;;2055671;28;20223;-66
2023/03/07 03:26:10;;;;;;;1.70;1.60;;;;;19.10;98658.00;;;;2069256;28;20222;-65
2023/03/07 03:27:10;;;;;;;1.83;1.30;;;;;19.10;98656.00;;;;2071877;28;20214;-66
2023/03/07 03:28:12;;;;;;;1.87;1.50;;;;;19.10;98642.00;;;;2071659;28;20225;-66
2023/03/07 03:29:12;;;;;;;1.60;1.13;;;;;19.10;98657.00;;;;2071895;28;20218;-66
2023/03/07 03:30:13;;;;;;;1.50;1.40;;;;;19.00;98657.00;;;;2071750;28;20210;-66
2023/03/07 03:31:16;;;;;;;1.50;1.40;;;;;19.10;98649.00;;;;2071878;28;20238;-66
2023/03/07 03:32:17;;;;;;;1.35;1.25;;;;;19.10;98647.00;;;;2071996;28;20214;-65
2023/03/07 03:33:17;;;;;;;1.70;1.60;;;;;19.10;98650.00;;;;2071812;28;20896;-66
2023/03/07 03:34:17;;;;;;;1.63;1.53;;;;;19.10;98642.00;;;;2072007;28;20657;-66
2023/03/07 03:35:18;;;;;;;1.93;1.37;;;;;19.10;98646.00;;;;2071714;28;21618;-66
2023/03/07 03:36:18;;;;;;;1.50;1.40;;;;;19.10;98648.00;;;;2071494;28;20795;-66
2023/03/07 03:37:18;;;;;;;1.53;1.43;;;;;19.10;98643.00;;;;2071965;28;20288;-66
2023/03/07 03:38:19;;;;;;;2.33;1.30;;;;;19.10;98642.00;;;;2071740;28;20218;-66
2023/03/07 03:39:19;;;;;;;1.73;1.33;;;;;19.10;98641.00;;;;2071987;28;20221;-66
2023/03/07 03:40:19;;;;;;;1.37;1.27;;;;;19.10;98633.00;;;;2063180;28;20678;-66
2023/03/07 03:41:20;;;;;;;2.30;1.47;;;;;19.10;98635.00;;;;2063021;28;20600;-65
2023/03/07 03:42:20;;;;;;;1.33;1.23;;;;;19.00;98638.00;;;;2071746;28;20580;-66
2023/03/07 03:43:21;;;;;;;1.30;1.20;;;;;19.10;98632.00;;;;2071914;28;20224;-66
2023/03/07 03:44:21;;;;;;;1.50;1.40;;;;;19.10;98632.00;;;;2071961;28;20586;-66
2023/03/07 03:45:21;;;;;;;1.70;1.50;;;;;19.10;98639.00;;;;2071698;28;20214;-66
2023/03/07 03:46:22;;;;;;;1.57;1.40;;;;;19.10;98611.00;;;;2071851;28;20678;-66
2023/03/07 03:47:22;;;;;;;1.30;1.20;;;;;19.10;98641.00;;;;2071675;28;20799;-66
2023/03/07 03:48:22;;;;;;;1.73;1.40;;;;;19.10;98630.00;;;;2071478;28;20677;-66
2023/03/07 03:49:23;;;;;;;1.70;1.30;;;;;19.10;98629.00;;;;2071846;28;20218;-65
2023/03/07 03:50:23;;;;;;;1.87;1.70;;;;;19.10;98630.00;;;;2071398;28;20217;-66
2023/03/07 03:51:23;;;;;;;2.37;1.40;;;;;19.10;98626.00;;;;2071715;28;20212;-66
2023/03/07 03:52:24;;;;;;;1.87;1.17;;;;;19.10;98628.00;;;;2071818;28;20210;-66
2023/03/07 03:53:24;;;;;;;1.40;1.30;;;;;19.00;98620.00;;;;2071339;28;20689;-66
2023/03/07 03:54:24;;;;;;;1.40;1.13;;;;;19.10;98634.00;;;;2071516;28;20745;-65
2023/03/07 03:55:25;;;;;;;1.40;1.30;;;;;19.00;98632.00;;;;2071748;28;20268;-66
2023/03/07 03:56:25;;;;;;;1.70;1.60;;;;;19.00;98634.00;;;;2070321;28;20213;-66
2023/03/07 03:57:26;;;;;;;1.40;1.30;;;;;19.00;98623.00;;;;2071726;28;20216;-66
2023/03/07 03:58:26;;;;;;;1.60;1.37;;;;;19.10;98632.00;;;;2071349;28;20210;-66
2023/03/07 03:59:26;;;;;;;1.50;1.40;;;;;19.00;98628.00;;;;2071726;28;20230;-66
2023/03/07 04:00:27;;;;;;;1.57;1.47;;;;;19.00;98630.00;;;;2071663;28;20217;-66
2023/03/07 04:01:27;;;;;;;1.50;1.40;;;;;19.00;98630.00;;;;2071394;28;20244;-66
2023/03/07 04:02:29;;;;;;;1.50;1.20;;;;;19.00;98625.00;;;;2071721;28;20221;-66
2023/03/07 04:03:29;;;;;;;1.60;1.50;;;;;19.10;98622.00;;;;2071194;28;20220;-66
2023/03/07 04:04:30;;;;;;;1.90;1.60;;;;;19.00;98615.00;;;;2071517;28;20221;-66
2023/03/07 04:05:32;;;;;;;1.60;1.50;;;;;19.00;98623.00;;;;2071536;28;20234;-66
2023/03/07 04:06:33;;;;;;;1.50;1.40;;;;;19.00;98621.00;;;;2071351;28;20214;-66
2023/03/07 04:07:33;;;;;;;1.53;1.43;;;;;19.00;98621.00;;;;2071771;28;20289;-66
2023/03/07 04:08:34;;;;;;;1.47;1.37;;;;;19.00;98622.00;;;;2071502;28;20221;-66
2023/03/07 04:09:34;;;;;;;2.20;2.00;;;;;19.00;98611.00;;;;2071665;28;20259;-66
2023/03/07 04:10:34;;;;;;;2.00;1.80;;;;;19.00;98613.00;;;;2071681;28;20205;-66
2023/03/07 04:11:35;;;;;;;1.63;1.53;;;;;19.00;98611.00;;;;2071611;28;20201;-66
2023/03/07 04:12:35;;;;;;;1.70;1.60;;;;;19.00;98609.00;;;;2071668;28;20213;-66
2023/03/07 04:13:35;;;;;;;1.70;1.37;;;;;19.00;98605.00;;;;2071788;28;20339;-66
2023/03/07 04:14:36;;;;;;;1.83;1.57;;;;;19.00;98611.00;;;;2071238;28;20217;-66
2023/03/07 04:15:36;;;;;;;1.50;1.40;;;;;19.00;98605.00;;;;2071414;28;20209;-66
2023/03/07 04:16:36;;;;;;;2.30;1.50;;;;;19.00;98618.00;;;;2071505;28;20206;-66
2023/03/07 04:17:37;;;;;;;1.90;1.60;;;;;19.00;98608.00;;;;2071390;28;20207;-65
2023/03/07 04:18:38;;;;;;;2.47;1.70;;;;;19.00;98600.00;;;;2071336;28;20213;-65
2023/03/07 04:19:39;;;;;;;1.75;1.58;;;;;19.00;98595.00;;;;2062904;28;20286;-66
2023/03/07 04:20:41;;;;;;;1.70;1.53;;;;;19.00;98607.00;;;;2062938;28;20516;-66
2023/03/07 04:21:41;;;;;;;2.30;2.10;;;;;19.00;98601.00;;;;2062665;28;20268;-66
2023/03/07 04:22:42;;;;;;;1.33;1.23;;;;;19.00;98608.00;;;;2062888;28;20214;-66
2023/03/07 04:23:42;;;;;;;1.53;1.43;;;;;19.00;98596.00;;;;2071314;28;20241;-66
2023/03/07 04:24:44;;;;;;;1.70;1.60;;;;;19.00;98600.00;;;;2070998;28;20206;-66
2023/03/07 04:25:48;;;;;;;2.05;1.70;;;;;19.00;98596.00;;;;2069256;28;20214;-66
2023/03/07 04:26:48;;;;;;;1.85;1.75;;;;;19.00;98588.00;;;;2063170;28;21020;-66
2023/03/07 04:27:48;;;;;;;1.30;1.20;;;;;19.00;98596.00;;;;2063554;28;20225;-66
2023/03/07 04:28:49;;;;;;;2.53;1.67;;;;;19.00;98598.00;;;;2063202;28;20230;-66
2023/03/07 04:29:49;;;;;;;1.43;1.33;;;;;18.90;98589.00;;;;2060248;28;20223;-66
2023/03/07 04:30:51;;;;;;;1.90;1.20;;;;;18.90;98589.00;;;;2063437;28;20321;-65
2023/03/07 04:31:51;;;;;;;1.70;1.40;;;;;18.90;98598.00;;;;2063309;28;20211;-66
2023/03/07 04:32:51;;;;;;;1.70;1.60;;;;;18.90;98602.00;;;;2063324;28;20242;-65
2023/03/07 04:33:53;;;;;;;1.33;1.23;;;;;18.90;98591.00;;;;2063460;28;20269;-65
2023/03/07 04:34:53;;;;;;;2.03;1.60;;;;;18.90;98593.00;;;;2063506;28;20231;-66
2023/03/07 04:35:53;;;;;;;1.60;1.50;;;;;18.90;98562.00;;;;2063320;28;20219;-65
2023/03/07 04:36:54;;;;;;;1.30;1.20;;;;;18.90;98590.00;;;;2063166;28;20229;-66
2023/03/07 04:37:54;;;;;;;1.40;1.30;;;;;18.90;98579.00;;;;2063031;28;20226;-66
2023/03/07 04:38:54;;;;;;;1.60;1.50;;;;;18.90;98572.00;;;;2063344;28;20214;-66
2023/03/07 04:39:55;;;;;;;1.73;1.40;;;;;18.90;98583.00;;;;2063452;28;20226;-66
2023/03/07 04:40:55;;;;;;;1.67;1.57;;;;;18.90;98587.00;;;;2063382;28;20214;-65
2023/03/07 04:41:55;;;;;;;2.00;1.67;;;;;18.90;98577.00;;;;2063392;28;20222;-65
2023/03/07 04:42:55;;;;;;;1.60;1.40;;;;;18.90;98575.00;;;;2063379;28;20254;-66
2023/03/07 04:43:56;;;;;;;1.37;1.23;;;;;18.90;98582.00;;;;2063191;28;20257;-66
2023/03/07 04:44:56;;;;;;;1.60;1.50;;;;;18.90;98576.00;;;;2063538;28;20218;-66
2023/03/07 04:45:56;;;;;;;1.30;1.20;;;;;18.90;98579.00;;;;2063333;28;20216;-66
2023/03/07 04:46:57;;;;;;;3.20;1.60;;;;;18.90;98563.00;;;;2063466;28;20218;-66
2023/03/07 04:47:57;;;;;;;1.37;1.27;;;;;18.50;98567.00;;;;2063051;28;20233;-66
2023/03/07 04:48:57;;;;;;;1.83;1.33;;;;;18.90;98570.00;;;;2063138;28;20223;-65
2023/03/07 04:49:58;;;;;;;1.50;1.40;;;;;18.90;98585.00;;;;2063412;28;20221;-66
2023/03/07 04:50:58;;;;;;;1.47;1.37;;;;;18.90;98567.00;;;;2063443;28;20218;-66
2023/03/07 04:51:59;;;;;;;1.80;1.37;;;;;18.90;98567.00;;;;2063259;28;20965;-66
2023/03/07 04:52:59;;;;;;;1.60;1.40;;;;;18.90;98570.00;;;;2054848;28;20800;-66
2023/03/07 04:53:59;;;;;;;1.97;1.60;;;;;18.90;98568.00;;;;2053308;28;20562;-66
2023/03/07 04:55:00;;;;;;;1.70;1.50;;;;;18.90;98563.00;;;;2062958;28;20976;-66
2023/03/07 04:56:01;;;;;;;1.93;1.73;;;;;18.90;98555.00;;;;2063277;28;20217;-66
2023/03/07 04:57:01;;;;;;;2.10;1.92;;;;;18.90;98565.00;;;;2063446;28;20240;-65
2023/03/07 04:58:02;;;;;;;2.07;1.97;;;;;18.90;98562.00;;;;2062914;28;20302;-66
2023/03/07 04:59:02;;;;;;;2.23;1.83;;;;;18.90;98563.00;;;;2063440;28;20678;-66
2023/03/07 05:00:05;;;;;;;1.87;1.70;;;;;18.90;98568.00;;;;2063255;28;20246;-66
2023/03/07 05:01:05;;;;;;;2.53;2.03;;;;;18.90;98564.00;;;;2063252;28;20234;-66
2023/03/07 05:02:06;;;;;;;2.20;2.00;;;;;18.90;98557.00;;;;2063999;28;20211;-66
2023/03/07 05:03:07;;;;;;;2.17;1.97;;;;;18.90;98535.00;;;;2064746;28;20261;-65
2023/03/07 05:04:07;;;;;;;2.25;2.05;;;;;18.90;98563.00;;;;2064873;28;21016;-66
2023/03/07 05:05:08;;;;;;;2.40;2.20;;;;;18.80;98557.00;;;;2065025;28;20218;-66
2023/03/07 05:06:11;;;;;;;2.87;2.57;;;;;18.80;98535.00;;;;2064671;28;20222;-66
2023/03/07 05:07:12;;;;;;;4.28;2.10;;;;;18.80;98555.00;;;;2056376;28;20693;-66